Time;durP1;ratioP1;P1;durP2;ratioP2;P2;SDS_P1;SDS_P2;PMS_P1;PMS_P2;Temp;Humidity;BMP_temperature;BMP_pressure;BME280_temperature;BME280_humidity;BME280_pressure;Samples;Min_cycle;Max_cycle;Signal;HPM_P1;HPM_P2
2021/01/09 00:01:21;;;;;;;29.93;20.53;;;;;;;1.25;83.79;100708.13;5054682;28;19916;-86
2021/01/09 00:04:25;;;;;;;26.73;20.23;;;;;;;1.30;83.93;100713.19;5053932;28;20048;-85
2021/01/09 00:07:31;;;;;;;25.30;19.77;;;;;;;1.36;83.93;100701.50;5053470;28;20040;-83
2021/01/09 00:10:35;;;;;;;25.60;19.58;;;;;;;1.41;83.60;100707.44;5054377;28;20126;-86
2021/01/09 00:13:39;;;;;;;27.35;20.35;;;;;;;1.41;83.83;100702.16;5053544;28;20388;-88
2021/01/09 00:16:48;;;;;;;31.98;20.75;;;;;;;1.42;83.47;100722.34;5065448;28;20040;-87
2021/01/09 00:19:52;;;;;;;28.63;20.92;;;;;;;1.46;83.54;100719.50;5074325;28;20043;-87
2021/01/09 00:22:57;;;;;;;27.23;19.33;;;;;;;1.51;83.13;100711.34;5054098;28;20048;-79
2021/01/09 00:26:00;;;;;;;24.67;18.50;;;;;;;1.58;82.97;100703.06;5054190;28;20053;-79
2021/01/09 00:29:05;;;;;;;29.45;20.17;;;;;;;1.67;82.56;100702.69;5053704;28;20048;-86
2021/01/09 00:32:13;;;;;;;28.02;19.65;;;;;;;1.71;82.62;100720.13;5053879;28;20044;-87
2021/01/09 00:35:17;;;;;;;27.48;19.35;;;;;;;1.69;82.50;100714.03;5059604;28;20400;-87
2021/01/09 00:38:23;;;;;;;27.90;18.13;;;;;;;1.70;81.96;100702.53;5061559;28;20446;-88
2021/01/09 00:41:29;;;;;;;24.08;18.70;;;;;;;1.78;82.03;100704.81;5074292;28;20059;-86
2021/01/09 00:44:33;;;;;;;22.98;17.70;;;;;;;1.78;81.92;100708.31;5072667;28;20048;-82
2021/01/09 00:47:38;;;;;;;24.42;18.65;;;;;;;1.75;81.81;100711.09;5073497;28;20043;-82
2021/01/09 00:50:42;;;;;;;24.38;18.48;;;;;;;1.67;81.75;100702.69;5073415;28;20507;-81
2021/01/09 00:53:46;;;;;;;21.83;17.05;;;;;;;1.62;81.92;100707.31;5061094;28;20051;-80
2021/01/09 00:56:53;;;;;;;;;;;;;;;1.63;82.25;100719.59;5073995;28;20050;-79
2021/01/09 00:59:57;;;;;;;22.80;16.27;;;;;;;1.56;82.08;100720.81;5083072;28;19916;-79
2021/01/09 01:03:02;;;;;;;19.85;16.27;;;;;;;1.51;82.58;100717.50;5072581;28;20115;-79
2021/01/09 01:06:06;;;;;;;22.98;17.40;;;;;;;1.53;82.63;100715.66;5073495;28;20048;-83
2021/01/09 01:09:11;;;;;;;22.25;17.00;;;;;;;1.65;82.50;100719.56;5084567;28;20514;-81
2021/01/09 01:12:15;;;;;;;23.35;16.92;;;;;;;1.57;82.35;100722.53;5072766;28;20056;-82
2021/01/09 01:15:19;;;;;;;21.65;16.80;;;;;;;1.55;82.67;100721.75;5073667;28;20052;-84
2021/01/09 01:18:24;;;;;;;22.75;16.33;;;;;;;1.56;82.58;100719.94;5073775;28;20067;-81
2021/01/09 01:21:28;;;;;;;23.17;16.60;;;;;;;1.57;82.45;100724.31;5073806;28;20119;-79
2021/01/09 01:24:33;;;;;;;23.73;16.95;;;;;;;1.58;82.41;100729.53;5073230;28;20051;-81
2021/01/09 01:27:39;;;;;;;23.38;16.92;;;;;;;1.55;82.91;100728.81;5073405;28;20064;-82
2021/01/09 01:30:43;;;;;;;22.23;16.73;;;;;;;1.57;82.79;100732.25;5077845;28;20055;-82
2021/01/09 01:33:48;;;;;;;26.10;17.75;;;;;;;1.56;82.88;100731.41;5076973;28;20513;-80
2021/01/09 01:36:52;;;;;;;24.83;16.95;;;;;;;1.58;82.84;100710.19;5077352;28;20107;-80
2021/01/09 01:39:57;;;;;;;22.70;16.35;;;;;;;1.51;82.96;100712.22;5077226;28;20478;-80
2021/01/09 01:43:09;;;;;;;22.30;15.95;;;;;;;1.53;82.95;100713.00;5077105;28;20044;-79
2021/01/09 01:46:15;;;;;;;19.48;14.95;;;;;;;1.52;82.84;100713.94;5076632;28;20498;-77
2021/01/09 01:49:19;;;;;;;20.02;15.65;;;;;;;1.55;82.72;100731.47;5076458;28;20063;-80
2021/01/09 01:52:24;;;;;;;18.90;14.63;;;;;;;1.50;82.55;100726.41;5076678;28;20047;-79
2021/01/09 01:55:31;;;;;;;19.67;15.23;;;;;;;1.50;82.65;100722.88;5075900;28;20056;-78
2021/01/09 01:58:35;;;;;;;20.83;15.00;;;;;;;1.50;82.98;100741.41;5075784;28;20399;-76
2021/01/09 02:01:43;;;;;;;23.60;15.45;;;;;;;1.38;82.53;100731.38;5076746;28;20035;-76
2021/01/09 02:04:56;;;;;;;24.30;16.42;;;;;;;1.41;82.74;100734.72;5076541;28;20071;-78
2021/01/09 02:08:04;;;;;;;24.15;15.45;;;;;;;1.44;82.85;100737.22;5076719;28;20486;-77
2021/01/09 02:11:15;;;;;;;19.92;15.13;;;;;;;1.45;82.94;100743.38;5076703;28;20052;-77
2021/01/09 02:14:29;;;;;;;20.50;15.07;;;;;;;1.56;83.07;100751.69;5076461;28;20048;-77
2021/01/09 02:17:36;;;;;;;20.98;14.80;;;;;;;1.64;82.96;100765.44;5075657;28;20036;-77
2021/01/09 02:20:42;;;;;;;21.40;15.23;;;;;;;1.57;82.81;100753.41;5076595;28;20055;-80
2021/01/09 02:23:46;;;;;;;22.88;16.55;;;;;;;1.61;82.89;100755.84;5076139;28;20056;-77
2021/01/09 02:26:50;;;;;;;;;;;;;;;1.60;83.14;100770.03;5076154;28;20506;-82
2021/01/09 02:30:00;;;;;;;;;;;;;;;1.63;83.14;100777.81;5076767;28;19917;-74
2021/01/09 02:33:10;;;;;;;23.48;16.10;;;;;;;1.60;83.19;100780.59;5075022;28;19916;-79
2021/01/09 02:36:15;;;;;;;21.70;16.27;;;;;;;1.64;82.98;100776.88;5076558;28;20051;-79
2021/01/09 02:39:20;;;;;;;21.85;15.50;;;;;;;1.57;82.98;100779.88;5075672;28;20051;-80
2021/01/09 02:42:24;;;;;;;25.67;16.88;;;;;;;1.54;83.09;100785.28;5074995;28;20051;-77
2021/01/09 02:45:28;;;;;;;24.17;16.88;;;;;;;1.54;83.31;100785.28;5075943;28;20055;-78
2021/01/09 02:48:33;;;;;;;21.52;16.40;;;;;;;1.46;83.38;100785.63;5075494;28;20048;-81
2021/01/09 02:51:37;;;;;;;22.25;16.55;;;;;;;1.42;83.34;100770.81;5075923;28;20064;-77
2021/01/09 02:54:41;;;;;;;22.70;16.10;;;;;;;1.47;83.53;100768.84;5075551;28;20052;-80
2021/01/09 02:57:45;;;;;;;22.15;15.25;;;;;;;1.58;83.36;100773.66;5076271;28;20052;-86
2021/01/09 03:00:50;;;;;;;21.42;15.82;;;;;;;1.56;83.40;100771.06;5096017;28;20055;-81
2021/01/09 03:03:53;;;;;;;;;;;;;;;1.60;83.17;100763.88;5095797;28;20055;-81
2021/01/09 03:06:57;;;;;;;19.77;15.93;;;;;;;1.59;83.37;100756.84;5083671;28;20355;-81
2021/01/09 03:10:02;;;;;;;21.10;16.48;;;;;;;1.62;83.29;100747.00;5095873;28;20051;-79
2021/01/09 03:13:07;;;;;;;22.23;15.98;;;;;;;1.65;83.06;100746.88;5096063;28;20051;-81
2021/01/09 03:16:11;;;;;;;21.00;16.48;;;;;;;1.59;83.16;100739.19;5094959;28;20051;-81
2021/01/09 03:19:16;;;;;;;22.80;16.02;;;;;;;1.63;83.30;100727.53;5095782;28;20066;-78
2021/01/09 03:22:20;;;;;;;24.02;15.75;;;;;;;1.72;83.02;100716.56;5095895;28;20048;-77
2021/01/09 03:25:25;;;;;;;21.05;15.75;;;;;;;1.81;83.01;100723.19;5094750;28;20047;-79
2021/01/09 03:28:29;;;;;;;20.08;15.75;;;;;;;1.81;82.54;100705.53;5095560;28;20059;-80
2021/01/09 03:31:33;;;;;;;;;;;;;;;1.71;83.04;100720.13;5096071;28;20386;-83
2021/01/09 03:34:37;;;;;;;21.42;16.38;;;;;;;1.60;83.33;100697.75;5094821;28;20343;-82
2021/01/09 03:37:41;;;;;;;22.38;16.58;;;;;;;1.63;83.32;100703.72;5094534;28;20394;-84
2021/01/09 03:40:46;;;;;;;22.92;16.48;;;;;;;1.65;83.46;100707.19;5095512;28;20157;-79
2021/01/09 03:43:50;;;;;;;21.30;16.10;;;;;;;1.60;83.51;100701.25;5094329;28;20079;-82
2021/01/09 03:46:54;;;;;;;22.65;17.48;;;;;;;1.57;83.62;100729.63;5086685;28;20059;-80
2021/01/09 03:49:58;;;;;;;20.95;16.35;;;;;;;1.54;83.69;100743.84;5074008;28;20067;-79
2021/01/09 03:53:03;;;;;;;23.50;16.73;;;;;;;1.41;83.68;100737.34;5073933;28;20399;-81
2021/01/09 03:56:07;;;;;;;23.85;18.25;;;;;;;1.45;84.44;100749.53;5074314;28;20067;-77
2021/01/09 03:59:12;;;;;;;22.88;18.00;;;;;;;1.37;84.36;100756.94;5073190;28;20047;-80
2021/01/09 04:02:16;;;;;;;25.55;18.25;;;;;;;1.29;84.88;100754.63;5074059;28;20052;-82
2021/01/09 04:05:20;;;;;;;24.10;19.02;;;;;;;1.33;84.95;100749.22;5073606;28;20059;-81
2021/01/09 04:08:24;;;;;;;21.67;16.65;;;;;;;1.29;85.03;100733.47;5073985;28;20060;-83
2021/01/09 04:11:29;;;;;;;21.95;17.35;;;;;;;1.30;85.07;100744.91;5074202;28;20040;-80
2021/01/09 04:14:33;;;;;;;21.15;16.40;;;;;;;1.24;85.08;100742.53;5073954;28;20483;-88
2021/01/09 04:17:38;;;;;;;22.30;16.45;;;;;;;1.24;85.23;100756.63;5073181;28;20059;-87
2021/01/09 04:20:43;;;;;;;23.35;17.10;;;;;;;1.13;85.54;100745.66;5074281;28;20146;-84
2021/01/09 04:23:47;;;;;;;21.83;16.67;;;;;;;1.11;85.70;100751.94;5074245;28;20055;-87
2021/01/09 04:26:56;;;;;;;21.45;16.35;;;;;;;1.09;86.04;100751.97;5073486;28;20059;-90
2021/01/09 04:30:01;;;;;;;26.77;16.83;;;;;;;0.99;86.46;100752.44;5073538;28;20051;-80
2021/01/09 04:33:05;;;;;;;24.40;18.63;;;;;;;0.97;86.60;100767.50;5073672;28;20541;-80
2021/01/09 04:36:09;;;;;;;22.88;17.73;;;;;;;0.94;86.97;100765.00;5074118;28;20048;-80
2021/01/09 04:39:14;;;;;;;24.55;18.25;;;;;;;0.87;87.19;100755.59;5074088;28;20044;-84
2021/01/09 04:42:18;;;;;;;25.35;18.25;;;;;;;0.88;87.26;100758.19;5073473;28;20067;-80
2021/01/09 04:45:23;;;;;;;21.73;17.38;;;;;;;0.85;87.64;100760.09;5072777;28;20048;-81
2021/01/09 04:48:27;;;;;;;24.13;18.17;;;;;;;0.81;87.77;100754.09;5084803;28;20052;-81
2021/01/09 04:51:32;;;;;;;24.15;18.35;;;;;;;0.82;87.69;100749.63;5073984;28;20068;-79
2021/01/09 04:54:37;;;;;;;24.80;18.13;;;;;;;0.85;87.77;100747.75;5073389;28;20514;-79
2021/01/09 04:57:41;;;;;;;23.05;17.45;;;;;;;0.79;88.04;100749.78;5073914;28;20055;-76
2021/01/09 05:00:47;;;;;;;25.35;18.02;;;;;;;0.74;88.07;100744.66;5073927;28;20064;-80
2021/01/09 05:03:53;;;;;;;29.73;19.50;;;;;;;0.72;88.48;100740.41;5076283;28;20052;-83
2021/01/09 05:06:58;;;;;;;25.52;18.77;;;;;;;0.78;88.23;100730.44;5077992;28;20506;-83
2021/01/09 05:10:05;;;;;;;;;;;;;;;0.74;88.48;100731.47;5078659;28;20051;-79
2021/01/09 05:13:09;;;;;;;26.58;18.10;;;;;;;0.71;88.77;100730.75;5077677;28;19916;-82
2021/01/09 05:16:14;;;;;;;25.13;17.20;;;;;;;0.69;88.66;100724.69;5077577;28;20059;-81
2021/01/09 05:19:18;;;;;;;26.20;18.00;;;;;;;0.72;88.28;100720.09;5077184;28;20502;-84
2021/01/09 05:22:24;;;;;;;23.77;17.38;;;;;;;0.76;88.54;100726.13;5077715;28;20047;-83
2021/01/09 05:25:29;;;;;;;24.10;17.30;;;;;;;0.80;88.46;100725.06;5076824;28;20047;-83
2021/01/09 05:28:33;;;;;;;25.27;18.23;;;;;;;0.76;88.47;100734.06;5088693;28;20158;-85
2021/01/09 05:31:37;;;;;;;23.35;17.95;;;;;;;0.67;88.29;100745.84;5076721;28;20051;-86
2021/01/09 05:34:53;;;;;;;26.60;18.38;;;;;;;0.69;88.65;100753.72;5076868;28;20071;-86
2021/01/09 05:37:57;;;;;;;23.48;17.52;;;;;;;0.64;88.68;100733.63;5077107;28;20047;-86
2021/01/09 05:41:12;;;;;;;24.60;18.10;;;;;;;0.51;88.82;100732.44;5077301;28;20502;-85
2021/01/09 05:44:16;;;;;;;26.75;18.88;;;;;;;0.52;89.03;100752.63;5076375;28;20051;-83
2021/01/09 05:47:22;;;;;;;28.13;17.55;;;;;;;0.49;89.01;100750.09;5077042;28;20048;-77
2021/01/09 05:50:27;;;;;;;24.77;18.55;;;;;;;0.42;89.09;100761.84;5076810;28;20082;-77
2021/01/09 05:53:49;;;;;;;164.07;101.63;;;;;;;0.42;89.45;100764.47;5076889;28;20051;-80
2021/01/09 05:56:53;;;;;;;103.30;63.88;;;;;;;0.43;89.56;100776.75;5076627;28;20041;-80
2021/01/09 06:00:04;;;;;;;40.67;27.08;;;;;;;0.49;89.39;100791.50;5076472;28;20045;-82
2021/01/09 06:03:30;;;;;;;25.80;19.48;;;;;;;0.44;89.28;100796.97;5076427;28;20075;-80
2021/01/09 06:06:56;;;;;;;29.38;19.83;;;;;;;0.40;89.09;100811.19;5076542;28;20043;-79
2021/01/09 06:10:07;;;;;;;22.63;17.90;;;;;;;0.40;89.17;100824.41;5076306;28;20585;-79
2021/01/09 06:13:13;;;;;;;27.52;19.17;;;;;;;0.38;89.26;100812.19;5076359;28;20043;-82
2021/01/09 06:16:18;;;;;;;23.65;17.98;;;;;;;0.42;89.01;100808.53;5075350;28;20454;-80
2021/01/09 06:19:22;;;;;;;25.90;18.40;;;;;;;0.35;88.91;100786.75;5075362;28;20063;-80
2021/01/09 06:22:27;;;;;;;25.25;18.05;;;;;;;0.23;89.08;100779.31;5075759;28;20055;-81
2021/01/09 06:25:35;;;;;;;24.77;18.52;;;;;;;0.22;89.11;100774.97;5086983;28;20067;-78
2021/01/09 06:28:45;;;;;;;27.67;19.95;;;;;;;0.18;89.34;100783.91;5075961;28;20055;-79
2021/01/09 06:31:58;;;;;;;27.02;19.63;;;;;;;0.29;89.45;100788.78;5075025;28;20055;-78
2021/01/09 06:35:04;;;;;;;24.13;18.58;;;;;;;0.34;89.15;100789.47;5075220;28;20056;-78
2021/01/09 06:38:09;;;;;;;25.08;18.58;;;;;;;0.30;89.20;100790.50;5072774;28;20060;-81
2021/01/09 06:41:18;;;;;;;26.30;18.98;;;;;;;0.31;89.29;100794.88;5074916;28;20055;-82
2021/01/09 06:44:24;;;;;;;23.63;18.23;;;;;;;0.39;89.08;100777.81;5075132;28;20423;-76
2021/01/09 06:47:30;;;;;;;27.08;18.92;;;;;;;0.48;88.60;100776.56;5074945;28;20499;-79
2021/01/09 06:50:34;;;;;;;27.05;18.15;;;;;;;0.44;88.92;100773.22;5075140;28;20051;-80
2021/01/09 06:53:38;;;;;;;26.45;18.85;;;;;;;0.46;88.94;100776.66;5075588;28;20051;-78
2021/01/09 06:56:42;;;;;;;;;;;;;;;0.48;88.73;100781.84;5074978;28;20051;-78
2021/01/09 06:59:47;;;;;;;;;;;;;;;0.45;88.67;100790.75;5075882;28;20274;-78
2021/01/09 07:03:15;;;;;;;26.52;19.40;;;;;;;0.50;88.27;100790.56;5074508;28;19916;-81
2021/01/09 07:06:57;;;;;;;31.38;22.92;;;;;;;0.49;88.22;100807.34;5075409;28;20403;-79
2021/01/09 07:10:14;;;;;;;37.08;25.60;;;;;;;0.38;88.55;100807.75;5055215;28;20048;-79
2021/01/09 07:13:20;;;;;;;33.13;24.45;;;;;;;0.41;88.27;100794.44;5094622;28;20051;-80
2021/01/09 07:16:27;;;;;;;51.22;34.35;;;;;;;0.41;88.01;100794.44;5095295;28;20070;-77
2021/01/09 07:19:34;;;;;;;89.85;49.50;;;;;;;0.51;87.38;100795.81;5095182;28;20509;-81
2021/01/09 07:22:41;;;;;;;83.82;50.13;;;;;;;0.55;87.46;100810.59;5094405;28;20410;-77
2021/01/09 07:25:46;;;;;;;50.53;33.75;;;;;;;0.53;87.14;100815.09;5094354;28;20059;-78
2021/01/09 07:28:52;;;;;;;38.75;28.73;;;;;;;0.68;86.83;100812.75;5087711;28;20043;-79
2021/01/09 07:31:56;;;;;;;31.65;25.10;;;;;;;0.82;86.44;100818.34;5075254;28;20056;-79
2021/01/09 07:35:06;;;;;;;32.05;23.33;;;;;;;1.07;85.78;100816.41;5089705;28;20048;-79
2021/01/09 07:38:12;;;;;;;29.02;22.50;;;;;;;1.28;84.37;100804.94;5078145;28;20399;-81
2021/01/09 07:41:37;;;;;;;35.08;24.92;;;;;;;1.50;83.48;100824.25;5074634;28;20051;-82
2021/01/09 07:45:11;;;;;;;33.08;24.02;;;;;;;2.14;81.88;100819.59;5074486;28;20048;-78
2021/01/09 07:48:21;;;;;;;32.20;23.42;;;;;;;3.05;78.72;100813.41;5074521;28;20048;-78
2021/01/09 07:51:50;;;;;;;30.90;22.55;;;;;;;4.10;74.40;100838.00;5085517;28;20427;-77
2021/01/09 07:54:56;;;;;;;26.40;20.95;;;;;;;5.39;68.89;100828.88;5073354;28;20483;-82
2021/01/09 07:58:01;;;;;;;25.98;20.02;;;;;;;6.36;64.63;100821.16;5054224;28;20052;-76
2021/01/09 08:01:04;;;;;;;26.20;20.83;;;;;;;7.03;62.28;100831.00;5084429;28;20047;-79
2021/01/09 08:04:10;;;;;;;24.20;19.17;;;;;;;7.09;61.22;100829.72;5094292;28;20386;-83
2021/01/09 08:07:18;;;;;;;28.63;21.52;;;;;;;7.46;60.02;100846.81;5087172;28;20056;-82
2021/01/09 08:10:24;;;;;;;27.95;21.13;;;;;;;8.20;57.80;100842.53;5073944;28;20383;-77
2021/01/09 08:13:28;;;;;;;23.60;20.02;;;;;;;9.01;54.94;100838.44;5073723;28;20052;-79
2021/01/09 08:16:32;;;;;;;27.55;20.95;;;;;;;8.82;54.63;100831.84;5087941;28;20395;-81
2021/01/09 08:19:37;;;;;;;29.52;20.23;;;;;;;8.46;55.32;100827.34;5092950;28;20078;-80
2021/01/09 08:22:50;;;;;;;26.15;20.27;;;;;;;8.48;55.98;100844.16;5079933;28;20044;-79
2021/01/09 08:25:54;;;;;;;24.88;20.33;;;;;;;8.79;54.80;100838.28;5073033;28;20601;-78
2021/01/09 08:28:59;;;;;;;25.40;20.33;;;;;;;8.97;54.42;100857.50;5090600;28;20047;-79
2021/01/09 08:32:12;;;;;;;29.60;19.70;;;;;;;9.55;52.57;100857.59;5093960;28;20517;-80
2021/01/09 08:35:17;;;;;;;28.33;21.90;;;;;;;9.53;52.12;100862.19;5087344;28;20067;-80
2021/01/09 08:38:28;;;;;;;24.30;19.75;;;;;;;9.51;51.78;100863.28;5084952;28;20497;-81
2021/01/09 08:41:42;;;;;;;28.23;20.83;;;;;;;9.56;51.72;100859.28;5093871;28;20047;-77
2021/01/09 08:44:47;;;;;;;;;;;;;;;9.87;50.69;100851.59;5075955;28;20518;-81
2021/01/09 08:47:52;;;;;;;29.83;20.90;;;;;;;10.06;49.50;100847.38;5073528;28;20335;-80
2021/01/09 08:51:08;;;;;;;25.15;20.95;;;;;;;10.51;49.18;100844.75;5080307;28;20040;-81
2021/01/09 08:54:15;;;;;;;23.48;18.88;;;;;;;12.51;44.24;100832.19;5092327;28;20474;-82
2021/01/09 08:57:19;;;;;;;22.90;19.70;;;;;;;12.66;43.00;100846.16;5084842;28;20049;-82
2021/01/09 09:00:24;;;;;;;26.60;21.83;;;;;;;11.56;45.58;100835.09;5089249;28;20040;-79
2021/01/09 09:03:29;;;;;;;23.10;20.27;;;;;;;10.64;47.98;100838.25;5052551;28;20037;-79
2021/01/09 09:06:36;;;;;;;21.85;19.45;;;;;;;10.39;49.25;100850.09;5053365;28;20050;-82
2021/01/09 09:09:41;;;;;;;23.60;19.23;;;;;;;10.84;47.79;100856.31;5063496;28;20044;-81
2021/01/09 09:12:45;;;;;;;26.08;20.02;;;;;;;9.76;49.98;100872.03;5052382;28;20045;-78
2021/01/09 09:15:52;;;;;;;43.35;25.38;;;;;;;8.53;53.75;100879.47;5058082;28;20147;-80
2021/01/09 09:18:56;;;;;;;27.58;23.77;;;;;;;7.87;55.84;100890.31;5053324;28;20048;-82
2021/01/09 09:22:00;;;;;;;25.33;20.75;;;;;;;6.99;58.01;100877.50;5058958;28;20055;-79
2021/01/09 09:25:05;;;;;;;25.30;20.23;;;;;;;6.53;60.33;100881.41;5053143;28;20060;-78
2021/01/09 09:28:09;;;;;;;27.17;21.60;;;;;;;5.96;62.83;100891.16;5063184;28;20055;-78
2021/01/09 09:31:18;;;;;;;25.30;22.13;;;;;;;5.24;64.92;100902.50;5092519;28;20114;-79
2021/01/09 09:34:27;;;;;;;25.30;22.05;;;;;;;4.94;65.98;100877.63;5091923;28;20102;-84
2021/01/09 09:37:35;;;;;;;28.30;22.05;;;;;;;4.95;66.84;100884.66;5080046;28;20048;-84
2021/01/09 09:40:40;;;;;;;26.40;22.67;;;;;;;4.97;67.65;100888.09;5053561;28;20395;-84
2021/01/09 09:43:58;;;;;;;28.57;23.90;;;;;;;4.85;67.97;100885.25;5052421;28;20055;-78
2021/01/09 09:47:05;;;;;;;28.48;24.08;;;;;;;4.78;67.93;100891.88;5074396;28;20051;-78
2021/01/09 09:50:09;;;;;;;26.13;22.92;;;;;;;4.82;68.78;100894.25;5093535;28;20051;-77
2021/01/09 09:53:13;;;;;;;29.67;23.90;;;;;;;4.99;68.42;100901.28;5096776;28;20051;-83
2021/01/09 09:56:20;;;;;;;29.30;23.73;;;;;;;5.05;68.17;100904.50;5094764;28;20055;-78
2021/01/09 09:59:29;;;;;;;28.10;22.42;;;;;;;5.02;68.35;100894.00;5072765;28;20395;-84
2021/01/09 10:02:34;;;;;;;31.48;23.48;;;;;;;5.03;68.46;100889.56;5075627;28;20388;-80
2021/01/09 10:05:38;;;;;;;29.38;23.25;;;;;;;4.76;69.03;100880.47;5076336;28;20056;-85
2021/01/09 10:08:44;;;;;;;27.67;23.45;;;;;;;4.89;69.19;100885.00;5076370;28;20051;-78
2021/01/09 10:11:50;;;;;;;31.55;22.65;;;;;;;4.87;69.06;100872.72;5075487;28;20055;-79
2021/01/09 10:14:54;;;;;;;31.85;22.52;;;;;;;4.73;69.30;100875.31;5076408;28;20051;-80
2021/01/09 10:18:01;;;;;;;27.05;22.90;;;;;;;4.68;70.23;100870.25;5083465;28;20067;-83
2021/01/09 10:21:05;;;;;;;30.90;24.23;;;;;;;4.75;70.59;100860.13;5084065;28;20379;-88
2021/01/09 10:24:09;;;;;;;28.52;24.40;;;;;;;4.78;70.47;100854.63;5078316;28;20518;-85
2021/01/09 10:27:13;;;;;;;27.88;23.08;;;;;;;4.64;70.82;100859.88;5072680;28;20043;-87
2021/01/09 10:30:17;;;;;;;;;;;;;;;4.49;71.41;100865.06;5073038;28;20056;-78
2021/01/09 10:33:21;;;;;;;29.58;25.45;;;;;;;4.46;71.44;100848.44;5073632;28;19916;-81
2021/01/09 10:36:37;;;;;;;27.20;23.55;;;;;;;4.59;71.20;100850.34;5068452;28;20040;-78
2021/01/09 10:39:41;;;;;;;32.90;23.30;;;;;;;4.59;70.69;100834.38;5082853;28;20039;-82
2021/01/09 10:42:45;;;;;;;;;;;;;;;4.68;70.73;100848.13;5079879;28;20043;-79
2021/01/09 10:45:49;;;;;;;28.27;24.13;;;;;;;4.76;70.39;100840.56;5078818;28;20278;-85
2021/01/09 10:48:53;;;;;;;;;;;;;;;4.78;70.75;100839.56;5096535;28;20047;-80
2021/01/09 10:51:57;;;;;;;27.95;22.33;;;;;;;4.96;70.18;100827.00;5054863;28;19921;-82
2021/01/09 10:55:05;;;;;;;28.00;23.58;;;;;;;5.04;69.69;100830.06;5043604;28;20052;-79
2021/01/09 10:58:09;;;;;;;31.13;24.45;;;;;;;4.93;70.28;100822.72;5055231;28;20048;-79
2021/01/09 11:01:13;;;;;;;27.20;23.52;;;;;;;4.95;70.14;100818.16;5084158;28;20051;-77
2021/01/09 11:04:18;;;;;;;;;;;;;;;4.84;70.21;100828.56;5092615;28;20051;-81
2021/01/09 11:07:22;;;;;;;30.63;24.52;;;;;;;4.82;70.49;100819.81;5082506;28;20282;-87
2021/01/09 11:10:27;;;;;;;29.58;25.60;;;;;;;4.81;70.05;100809.25;5085886;28;20055;-80
2021/01/09 11:13:34;;;;;;;29.45;24.02;;;;;;;4.82;70.76;100789.69;5067701;28;20421;-86
2021/01/09 11:16:38;;;;;;;29.92;24.75;;;;;;;4.72;71.27;100794.69;5075166;28;20053;-87
2021/01/09 11:19:42;;;;;;;29.85;24.55;;;;;;;4.67;71.50;100787.94;5075862;28;20039;-79
2021/01/09 11:22:46;;;;;;;28.77;24.27;;;;;;;4.71;71.95;100786.81;5073237;28;20043;-78
2021/01/09 11:25:51;;;;;;;32.72;24.38;;;;;;;4.80;71.96;100788.91;5069001;28;20502;-87
2021/01/09 11:28:55;;;;;;;30.98;26.67;;;;;;;4.73;72.17;100780.44;5068540;28;20060;-79
2021/01/09 11:32:05;;;;;;;31.58;25.80;;;;;;;4.75;72.62;100777.69;5072994;28;20051;-79
2021/01/09 11:35:10;;;;;;;33.28;26.02;;;;;;;4.95;72.38;100769.44;5073623;28;20048;-78
2021/01/09 11:38:14;;;;;;;32.58;26.50;;;;;;;4.88;72.21;100776.91;5072630;28;20048;-80
2021/01/09 11:41:18;;;;;;;32.25;25.58;;;;;;;4.91;72.35;100770.56;5076460;28;20055;-78
2021/01/09 11:44:23;;;;;;;32.47;25.90;;;;;;;4.87;72.09;100771.66;5083246;28;20510;-78
2021/01/09 11:47:27;;;;;;;34.08;26.75;;;;;;;4.84;73.15;100775.34;5094264;28;20055;-79
2021/01/09 11:50:31;;;;;;;29.60;25.05;;;;;;;4.98;72.24;100771.91;5085180;28;20407;-87
2021/01/09 11:53:36;;;;;;;32.40;27.25;;;;;;;4.99;71.87;100770.94;5066965;28;20047;-87
2021/01/09 11:56:41;;;;;;;32.28;28.08;;;;;;;5.03;71.93;100769.84;5074263;28;20063;-81
2021/01/09 11:59:45;;;;;;;30.63;25.55;;;;;;;5.17;71.81;100756.59;5075496;28;20048;-81
2021/01/09 12:02:50;;;;;;;64.88;51.42;;;;;;;5.20;71.10;100749.28;5083067;28;20056;-83
2021/01/09 12:05:54;;;;;;;49.63;37.13;;;;;;;5.13;70.89;100760.38;5066459;28;20057;-82
2021/01/09 12:08:58;;;;;;;34.33;28.38;;;;;;;5.05;71.73;100744.88;5064256;28;20506;-81
2021/01/09 12:12:02;;;;;;;34.53;26.73;;;;;;;5.12;72.17;100746.22;5068534;28;20063;-86
2021/01/09 12:15:07;;;;;;;34.63;28.67;;;;;;;5.23;71.92;100745.59;5070893;28;20044;-85
2021/01/09 12:18:12;;;;;;;39.55;29.15;;;;;;;5.23;71.85;100741.09;5070663;28;20048;-77
2021/01/09 12:21:16;;;;;;;32.70;26.85;;;;;;;5.34;72.32;100742.25;5080436;28;20055;-80
2021/01/09 12:24:42;;;;;;;31.77;26.85;;;;;;;5.34;71.56;100742.25;5088612;28;20060;-76
2021/01/09 12:27:46;;;;;;;30.88;26.42;;;;;;;5.48;71.35;100743.13;5078036;28;20048;-78
2021/01/09 12:30:50;;;;;;;33.25;27.35;;;;;;;5.42;70.89;100732.88;5057206;28;20380;-78
2021/01/09 12:34:30;;;;;;;30.27;25.85;;;;;;;5.34;70.34;100735.16;5106017;28;20043;-76
2021/01/09 12:37:37;;;;;;;29.75;24.95;;;;;;;5.29;70.45;100723.91;5091086;28;20506;-80
2021/01/09 12:40:41;;;;;;;30.95;25.75;;;;;;;5.28;70.66;100726.69;5092173;28;20062;-78
2021/01/09 12:43:46;;;;;;;34.13;26.90;;;;;;;5.14;71.42;100724.84;5091157;28;20075;-78
2021/01/09 12:46:50;;;;;;;29.23;25.08;;;;;;;5.12;72.21;100721.41;5091205;28;20057;-83
2021/01/09 12:49:55;;;;;;;34.50;26.35;;;;;;;5.13;72.59;100724.00;5100233;28;20051;-81
2021/01/09 12:52:59;;;;;;;30.95;27.00;;;;;;;5.09;72.62;100718.94;5100680;28;20059;-79
2021/01/09 12:56:08;;;;;;;31.10;25.48;;;;;;;5.15;72.87;100718.56;5098864;28;20383;-82
2021/01/09 12:59:13;;;;;;;30.60;25.77;;;;;;;5.24;72.41;100707.38;5082542;28;20043;-82
2021/01/09 13:02:18;;;;;;;29.95;26.45;;;;;;;5.06;72.78;100705.81;5082076;28;20418;-80
2021/01/09 13:05:22;;;;;;;31.05;26.92;;;;;;;4.88;73.24;100698.94;5094450;28;20044;-82
2021/01/09 13:08:27;;;;;;;32.53;26.80;;;;;;;4.95;73.12;100689.63;5093167;28;20387;-82
2021/01/09 13:11:32;;;;;;;43.38;28.63;;;;;;;4.81;73.79;100690.47;5094090;28;20047;-82
2021/01/09 13:14:36;;;;;;;32.92;27.35;;;;;;;4.80;74.32;100690.53;5092943;28;20395;-83
2021/01/09 13:17:40;;;;;;;33.97;28.27;;;;;;;4.75;74.33;100690.81;5085422;28;20043;-81
2021/01/09 13:20:44;;;;;;;33.80;28.95;;;;;;;4.64;74.60;100685.28;5085967;28;20521;-81
2021/01/09 13:23:48;;;;;;;52.53;40.03;;;;;;;4.60;74.97;100695.22;5053879;28;20163;-80
2021/01/09 13:26:53;;;;;;;57.85;43.75;;;;;;;4.64;75.10;100692.38;5055698;28;20072;-81
2021/01/09 13:29:57;;;;;;;64.10;48.17;;;;;;;4.76;74.86;100694.34;5055464;28;20052;-79
2021/01/09 13:33:01;;;;;;;42.72;33.35;;;;;;;4.88;74.08;100690.94;5055571;28;20052;-86
2021/01/09 13:36:05;;;;;;;33.97;28.48;;;;;;;4.82;74.34;100696.63;5055097;28;20072;-83
2021/01/09 13:39:12;;;;;;;36.45;27.88;;;;;;;4.79;74.37;100697.66;5055199;28;20072;-79
2021/01/09 13:42:16;;;;;;;32.15;26.58;;;;;;;4.80;76.16;100698.50;5066939;28;20059;-85
2021/01/09 13:45:21;;;;;;;34.55;27.60;;;;;;;4.80;75.33;100696.72;5077662;28;20060;-82
2021/01/09 13:48:25;;;;;;;30.92;25.15;;;;;;;4.96;74.22;100689.53;5097008;28;20055;-79
2021/01/09 13:51:31;;;;;;;31.55;27.27;;;;;;;5.01;74.38;100692.78;5097578;28;20055;-85
2021/01/09 13:54:36;;;;;;;35.20;26.17;;;;;;;5.02;74.46;100696.31;5084522;28;20055;-80
2021/01/09 13:57:44;;;;;;;30.77;25.83;;;;;;;5.07;74.61;100694.22;5071637;28;20055;-83
2021/01/09 14:00:49;;;;;;;31.67;26.13;;;;;;;4.94;74.42;100706.53;5096572;28;20521;-78
2021/01/09 14:03:53;;;;;;;33.20;27.20;;;;;;;4.83;74.47;100714.28;5094879;28;20051;-80
2021/01/09 14:06:58;;;;;;;30.13;26.70;;;;;;;4.83;74.26;100712.50;5075908;28;20130;-82
2021/01/09 14:10:04;;;;;;;29.30;25.90;;;;;;;4.87;74.49;100708.69;5076908;28;20487;-81
2021/01/09 14:13:08;;;;;;;33.13;26.90;;;;;;;4.96;73.96;100717.97;5076858;28;20400;-79
2021/01/09 14:16:26;;;;;;;34.65;27.73;;;;;;;4.98;74.09;100716.91;5088840;28;20067;-81
2021/01/09 14:19:30;;;;;;;33.97;27.80;;;;;;;5.01;74.15;100718.53;5076689;28;20044;-78
2021/01/09 14:22:35;;;;;;;35.75;27.88;;;;;;;5.03;73.75;100712.19;5075804;28;20039;-83